Time,TemperatureF,DewpointF,PressureIn,WindDirection,WindDirectionDegrees,WindSpeedMPH,WindSpeedGustMPH,Humidity,HourlyPrecipIn,Conditions,Clouds,dailyrainin,SoftwareType,DateUTC
2013-02-05 00:08:00,35.0,31.0,29.96,North,349,4.0,4.0,86,0.00,,,0.00,weatherlink.com 1.10,2013-02-05 06:08:00,
2013-02-05 00:23:00,34.3,31.0,29.95,North,349,1.0,3.0,87,0.00,,,0.00,weatherlink.com 1.10,2013-02-05 06:23:00,
2013-02-05 00:38:00,34.1,31.0,29.95,North,349,0.0,4.0,87,0.00,,,0.00,weatherlink.com 1.10,2013-02-05 06:38:00,
2013-02-05 00:53:00,33.3,30.0,29.96,North,349,2.0,5.0,88,0.00,,,0.00,weatherlink.com 1.10,2013-02-05 06:53:00,
2013-02-05 01:08:00,32.9,30.0,29.96,North,349,3.0,5.0,89,0.00,,,0.00,weatherlink.com 1.10,2013-02-05 07:08:00,
2013-02-05 01:23:00,32.5,30.0,29.96,North,349,2.0,3.0,89,0.00,,,0.00,weatherlink.com 1.10,2013-02-05 07:23:00,
2013-02-05 01:38:00,32.0,29.0,29.96,North,349,0.0,4.0,89,0.00,,,0.00,weatherlink.com 1.10,2013-02-05 07:38:00,
2013-02-05 01:53:00,31.8,29.0,29.96,North,349,5.0,7.0,89,0.00,,,0.00,weatherlink.com 1.10,2013-02-05 07:53:00,
2013-02-05 02:08:00,31.4,28.0,29.96,North,349,0.0,4.0,88,0.00,,,0.00,weatherlink.com 1.10,2013-02-05 08:08:00,
2013-02-05 02:23:00,31.2,28.0,29.95,North,349,0.0,2.0,88,0.00,,,0.00,weatherlink.com 1.10,2013-02-05 08:23:00,
2013-02-05 02:38:00,31.0,28.0,29.95,North,349,0.0,1.0,88,0.00,,,0.00,weatherlink.com 1.10,2013-02-05 08:38:00,
2013-02-05 02:53:00,30.4,28.0,29.95,North,349,0.0,0.0,89,0.00,,,0.00,weatherlink.com 1.10,2013-02-05 08:53:00,
2013-02-05 03:08:00,29.6,27.0,29.95,North,349,0.0,1.0,89,0.00,,,0.00,weatherlink.com 1.10,2013-02-05 09:08:00,
2013-02-05 03:23:00,29.6,27.0,29.95,North,349,0.0,1.0,91,0.00,,,0.00,weatherlink.com 1.10,2013-02-05 09:23:00,
2013-02-05 03:38:00,29.5,27.0,29.95,North,349,0.0,0.0,91,0.00,,,0.00,weatherlink.com 1.10,2013-02-05 09:38:00,
2013-02-05 03:53:00,29.0,27.0,29.95,North,349,0.0,1.0,91,0.00,,,0.00,weatherlink.com 1.10,2013-02-05 09:53:00,
2013-02-05 04:08:00,28.8,27.0,29.95,North,349,0.0,1.0,92,0.00,,,0.00,weatherlink.com 1.10,2013-02-05 10:08:00,
2013-02-05 04:23:00,28.9,27.0,29.95,North,349,0.0,0.0,93,0.00,,,0.00,weatherlink.com 1.10,2013-02-05 10:23:00,
2013-02-05 04:38:00,28.8,27.0,29.95,North,349,0.0,0.0,92,0.00,,,0.00,weatherlink.com 1.10,2013-02-05 10:38:00,
2013-02-05 04:53:00,28.0,26.0,29.95,North,349,1.0,1.0,92,0.00,,,0.00,weatherlink.com 1.10,2013-02-05 10:53:00,
2013-02-05 05:08:00,27.6,26.0,29.96,North,349,0.0,1.0,93,0.00,,,0.00,weatherlink.com 1.10,2013-02-05 11:08:00,
2013-02-05 05:23:00,27.9,26.0,29.96,North,349,0.0,1.0,93,0.00,,,0.00,weatherlink.com 1.10,2013-02-05 11:23:00,
2013-02-05 05:38:00,28.2,27.0,29.97,North,349,0.0,3.0,93,0.00,,,0.00,weatherlink.com 1.10,2013-02-05 11:38:00,
2013-02-05 05:53:00,28.6,27.0,29.97,North,349,0.0,1.0,93,0.00,,,0.00,weatherlink.com 1.10,2013-02-05 11:53:00,
2013-02-05 06:08:00,28.6,27.0,29.98,North,349,0.0,1.0,92,0.00,,,0.00,weatherlink.com 1.10,2013-02-05 12:08:00,
2013-02-05 06:23:00,28.9,27.0,29.99,North,349,0.0,2.0,93,0.00,,,0.00,weatherlink.com 1.10,2013-02-05 12:23:00,
2013-02-05 06:38:00,29.2,27.0,29.99,North,349,0.0,0.0,92,0.00,,,0.00,weatherlink.com 1.10,2013-02-05 12:38:00,
2013-02-05 06:53:00,28.5,27.0,29.99,North,349,2.0,2.0,92,0.00,,,0.00,weatherlink.com 1.10,2013-02-05 12:53:00,
2013-02-05 07:08:00,28.5,27.0,29.99,North,349,0.0,1.0,93,0.00,,,0.00,weatherlink.com 1.10,2013-02-05 13:08:00,
2013-02-05 07:23:00,28.9,27.0,29.98,North,349,0.0,1.0,93,0.00,,,0.00,weatherlink.com 1.10,2013-02-05 13:23:00,
2013-02-05 07:38:00,29.8,28.0,29.98,North,349,1.0,2.0,93,0.00,,,0.00,weatherlink.com 1.10,2013-02-05 13:38:00,
2013-02-05 07:53:00,30.2,29.0,29.99,North,349,3.0,3.0,93,0.00,,,0.00,weatherlink.com 1.10,2013-02-05 13:53:00,
2013-02-05 08:08:00,30.5,29.0,29.99,North,349,2.0,4.0,93,0.00,,,0.00,weatherlink.com 1.10,2013-02-05 14:08:00,
2013-02-05 08:23:00,30.8,29.0,30.00,North,349,2.0,4.0,92,0.00,,,0.00,weatherlink.com 1.10,2013-02-05 14:23:00,
2013-02-05 08:39:00,31.8,30.0,30.00,North,349,1.0,3.0,92,0.00,,,0.00,weatherlink.com 1.10,2013-02-05 14:39:00,
2013-02-05 08:54:00,32.5,30.0,30.00,North,349,2.0,4.0,89,0.00,,,0.00,weatherlink.com 1.10,2013-02-05 14:54:00,
2013-02-05 09:09:00,33.1,30.0,29.99,SE,145,6.0,8.0,89,0.00,,,0.00,weatherlink.com 1.10,2013-02-05 15:09:00,
2013-02-05 09:24:00,33.4,31.0,29.99,SSE,156,6.0,8.0,89,0.00,,,0.00,weatherlink.com 1.10,2013-02-05 15:24:00,
2013-02-05 09:39:00,34.0,31.0,29.99,South,171,6.0,8.0,89,0.00,,,0.00,weatherlink.com 1.10,2013-02-05 15:39:00,
2013-02-05 09:54:00,35.0,32.0,29.98,SSE,166,5.0,10.0,87,0.00,,,0.00,weatherlink.com 1.10,2013-02-05 15:54:00,
2013-02-05 10:09:00,35.9,32.0,29.99,SSE,167,6.0,12.0,87,0.00,,,0.00,weatherlink.com 1.10,2013-02-05 16:09:00,
2013-02-05 10:24:00,37.1,33.0,29.98,SSW,202,5.0,12.0,85,0.00,,,0.00,weatherlink.com 1.10,2013-02-05 16:24:00,
2013-02-05 10:39:00,38.5,34.0,29.98,SSW,199,5.0,11.0,84,0.00,,,0.00,weatherlink.com 1.10,2013-02-05 16:39:00,
2013-02-05 10:54:00,39.8,34.0,29.98,South,169,7.0,12.0,81,0.00,,,0.00,weatherlink.com 1.10,2013-02-05 16:54:00,
2013-02-05 11:09:00,41.0,36.0,29.98,South,181,8.0,13.0,81,0.00,,,0.00,weatherlink.com 1.10,2013-02-05 17:09:00,
2013-02-05 11:24:00,42.0,36.0,29.97,SSE,163,8.0,11.0,80,0.00,,,0.00,weatherlink.com 1.10,2013-02-05 17:24:00,
2013-02-05 11:39:00,43.1,36.0,29.96,SW,236,6.0,16.0,76,0.00,,,0.00,weatherlink.com 1.10,2013-02-05 17:39:00,
2013-02-05 11:54:00,44.5,37.0,29.95,West,264,4.0,10.0,74,0.00,,,0.00,weatherlink.com 1.10,2013-02-05 17:54:00,
2013-02-05 12:09:00,45.1,37.0,29.94,SW,228,3.0,12.0,74,0.00,,,0.00,weatherlink.com 1.10,2013-02-05 18:09:00,
2013-02-05 12:24:00,46.4,38.0,29.94,SW,219,8.0,10.0,72,0.00,,,0.00,weatherlink.com 1.10,2013-02-05 18:24:00,
2013-02-05 12:39:00,47.6,38.0,29.93,WSW,241,5.0,9.0,69,0.00,,,0.00,weatherlink.com 1.10,2013-02-05 18:39:00,
2013-02-05 12:54:00,48.5,38.0,29.92,SW,216,3.0,11.0,67,0.00,,,0.00,weatherlink.com 1.10,2013-02-05 18:54:00,
2013-02-05 13:09:00,49.8,38.0,29.92,SSW,192,4.0,11.0,65,0.00,,,0.00,weatherlink.com 1.10,2013-02-05 19:09:00,
2013-02-05 13:24:00,50.6,38.0,29.92,SSW,212,7.0,12.0,62,0.00,,,0.00,weatherlink.com 1.10,2013-02-05 19:24:00,
2013-02-05 13:39:00,51.7,38.0,29.92,SW,225,2.0,12.0,61,0.00,,,0.00,weatherlink.com 1.10,2013-02-05 19:39:00,
2013-02-05 13:54:00,52.4,39.0,29.91,SW,219,4.0,12.0,60,0.00,,,0.00,weatherlink.com 1.10,2013-02-05 19:54:00,
2013-02-05 14:09:00,53.3,39.0,29.91,WNW,299,7.0,14.0,58,0.00,,,0.00,weatherlink.com 1.10,2013-02-05 20:09:00,
2013-02-05 14:25:00,53.5,38.0,29.91,NW,309,8.0,12.0,56,0.00,,,0.00,weatherlink.com 1.10,2013-02-05 20:25:00,
2013-02-05 14:40:00,53.9,38.0,29.91,West,275,1.0,13.0,55,0.00,,,0.00,weatherlink.com 1.10,2013-02-05 20:40:00,
2013-02-05 14:55:00,53.9,39.0,29.92,WSW,245,6.0,15.0,57,0.00,,,0.00,weatherlink.com 1.10,2013-02-05 20:55:00,
2013-02-05 15:10:00,54.2,39.0,29.92,WSW,254,4.0,13.0,57,0.00,,,0.00,weatherlink.com 1.10,2013-02-05 21:10:00,
2013-02-05 15:25:00,54.9,39.0,29.93,WSW,253,6.0,7.0,55,0.00,,,0.00,weatherlink.com 1.10,2013-02-05 21:25:00,
2013-02-05 15:40:00,54.8,39.0,29.93,SW,225,2.0,11.0,56,0.00,,,0.00,weatherlink.com 1.10,2013-02-05 21:40:00,
2013-02-05 15:55:00,55.1,39.0,29.93,West,276,5.0,7.0,54,0.00,,,0.00,weatherlink.com 1.10,2013-02-05 21:55:00,
2013-02-05 16:10:00,55.0,39.0,29.92,SW,223,1.0,11.0,56,0.00,,,0.00,weatherlink.com 1.10,2013-02-05 22:10:00,
2013-02-05 16:25:00,54.9,38.0,29.92,SSW,209,4.0,10.0,54,0.00,,,0.00,weatherlink.com 1.10,2013-02-05 22:25:00,
2013-02-05 16:40:00,54.9,38.0,29.93,SW,219,3.0,6.0,54,0.00,,,0.00,weatherlink.com 1.10,2013-02-05 22:40:00,
2013-02-05 16:55:00,54.2,39.0,29.93,SW,219,2.0,5.0,56,0.00,,,0.00,weatherlink.com 1.10,2013-02-05 22:55:00,
2013-02-05 17:10:00,53.4,38.0,29.93,SW,219,1.0,3.0,57,0.00,,,0.00,weatherlink.com 1.10,2013-02-05 23:10:00,
2013-02-05 17:25:00,52.3,38.0,29.94,SW,235,0.0,5.0,58,0.00,,,0.00,weatherlink.com 1.10,2013-02-05 23:25:00,
2013-02-05 17:40:00,51.9,38.0,29.94,SW,235,0.0,2.0,59,0.00,,,0.00,weatherlink.com 1.10,2013-02-05 23:40:00,
2013-02-05 17:55:00,50.9,37.0,29.95,SW,235,0.0,2.0,60,0.00,,,0.00,weatherlink.com 1.10,2013-02-05 23:55:00,
2013-02-05 18:10:00,48.7,37.0,29.96,North,5,3.0,5.0,65,0.00,,,0.00,weatherlink.com 1.10,2013-02-06 00:10:00,
2013-02-05 18:25:00,46.5,37.0,29.97,NNW,348,7.0,8.0,69,0.00,,,0.00,weatherlink.com 1.10,2013-02-06 00:25:00,
2013-02-05 18:40:00,46.8,38.0,29.97,NNW,342,0.0,7.0,71,0.00,,,0.00,weatherlink.com 1.10,2013-02-06 00:40:00,
2013-02-05 18:55:00,45.9,38.0,29.98,NNW,342,3.0,3.0,73,0.00,,,0.00,weatherlink.com 1.10,2013-02-06 00:55:00,
2013-02-05 19:10:00,45.7,37.0,29.99,NNW,342,2.0,4.0,73,0.00,,,0.00,weatherlink.com 1.10,2013-02-06 01:10:00,
2013-02-05 19:25:00,45.5,37.0,30.00,NNW,329,5.0,6.0,73,0.00,,,0.00,weatherlink.com 1.10,2013-02-06 01:25:00,
2013-02-05 19:40:00,46.9,37.0,30.01,NNW,329,6.0,10.0,69,0.00,,,0.00,weatherlink.com 1.10,2013-02-06 01:40:00,
2013-02-05 19:55:00,46.6,37.0,30.02,NNW,332,7.0,10.0,70,0.00,,,0.00,weatherlink.com 1.10,2013-02-06 01:55:00,
2013-02-05 20:10:00,46.0,37.0,30.02,NNW,329,5.0,10.0,70,0.00,,,0.00,weatherlink.com 1.10,2013-02-06 02:10:00,
2013-02-05 20:25:00,44.1,36.0,30.03,NNW,329,4.0,4.0,73,0.00,,,0.00,weatherlink.com 1.10,2013-02-06 02:25:00,
2013-02-05 20:40:00,45.0,36.0,30.04,NNW,347,6.0,10.0,72,0.00,,,0.00,weatherlink.com 1.10,2013-02-06 02:40:00,
2013-02-05 20:55:00,44.5,36.0,30.05,NNW,331,4.0,9.0,73,0.00,,,0.00,weatherlink.com 1.10,2013-02-06 02:55:00,
2013-02-05 21:10:00,43.4,36.0,30.05,NW,324,3.0,6.0,74,0.00,,,0.00,weatherlink.com 1.10,2013-02-06 03:10:00,
2013-02-05 21:25:00,42.8,36.0,30.06,NNW,335,5.0,9.0,76,0.00,,,0.00,weatherlink.com 1.10,2013-02-06 03:25:00,
2013-02-05 21:40:00,43.1,36.0,30.07,NNW,340,8.0,12.0,75,0.00,,,0.00,weatherlink.com 1.10,2013-02-06 03:40:00,
2013-02-05 21:55:00,42.7,35.0,30.07,North,355,9.0,10.0,75,0.00,,,0.00,weatherlink.com 1.10,2013-02-06 03:55:00,
2013-02-05 22:10:00,42.6,35.0,30.07,NNW,340,6.0,12.0,75,0.00,,,0.00,weatherlink.com 1.10,2013-02-06 04:10:00,
2013-02-05 22:25:00,42.0,35.0,30.08,North,355,12.0,12.0,76,0.00,,,0.00,weatherlink.com 1.10,2013-02-06 04:25:00,
2013-02-05 22:40:00,41.6,35.0,30.08,North,355,7.0,12.0,77,0.00,,,0.00,weatherlink.com 1.10,2013-02-06 04:40:00,
2013-02-05 22:55:00,41.2,35.0,30.09,North,360,5.0,14.0,77,0.00,,,0.00,weatherlink.com 1.10,2013-02-06 04:55:00,
2013-02-05 23:10:00,41.0,34.0,30.10,North,355,8.0,13.0,77,0.00,,,0.00,weatherlink.com 1.10,2013-02-06 05:10:00,
2013-02-05 23:25:00,40.4,34.0,30.10,NNE,15,5.0,12.0,78,0.00,,,0.00,weatherlink.com 1.10,2013-02-06 05:25:00,
2013-02-05 23:40:00,39.6,34.0,30.11,NNW,337,7.0,9.0,79,0.00,,,0.00,weatherlink.com 1.10,2013-02-06 05:40:00,
2013-02-05 23:55:00,38.9,33.0,30.12,North,5,4.0,10.0,80,0.00,,,0.00,weatherlink.com 1.10,2013-02-06 05:55:00,